sensor_id;sensor_type;location;lat;lon;timestamp;P1;durP1;ratioP1;P2;durP2;ratioP2
4939;SDS011;2485;49.326;7.214;2022-07-23T00:00:01;9.50;;;7.43;;
4939;SDS011;2485;49.326;7.214;2022-07-23T00:02:29;9.83;;;7.40;;
4939;SDS011;2485;49.326;7.214;2022-07-23T00:04:55;9.83;;;8.13;;
4939;SDS011;2485;49.326;7.214;2022-07-23T00:07:21;13.57;;;8.13;;
4939;SDS011;2485;49.326;7.214;2022-07-23T00:09:48;11.20;;;8.20;;
4939;SDS011;2485;49.326;7.214;2022-07-23T00:12:14;11.57;;;8.37;;
4939;SDS011;2485;49.326;7.214;2022-07-23T00:14:41;12.10;;;7.97;;
4939;SDS011;2485;49.326;7.214;2022-07-23T00:17:07;11.00;;;7.87;;
4939;SDS011;2485;49.326;7.214;2022-07-23T00:19:35;9.13;;;7.97;;
4939;SDS011;2485;49.326;7.214;2022-07-23T00:22:01;9.93;;;8.00;;
4939;SDS011;2485;49.326;7.214;2022-07-23T00:24:27;10.53;;;8.20;;
4939;SDS011;2485;49.326;7.214;2022-07-23T00:26:54;11.70;;;7.67;;
4939;SDS011;2485;49.326;7.214;2022-07-23T00:29:20;12.73;;;8.40;;
4939;SDS011;2485;49.326;7.214;2022-07-23T00:31:46;11.73;;;7.87;;
4939;SDS011;2485;49.326;7.214;2022-07-23T00:34:13;10.33;;;8.20;;
4939;SDS011;2485;49.326;7.214;2022-07-23T00:36:41;9.47;;;7.83;;
4939;SDS011;2485;49.326;7.214;2022-07-23T00:39:07;14.60;;;8.90;;
4939;SDS011;2485;49.326;7.214;2022-07-23T00:41:33;9.53;;;7.20;;
4939;SDS011;2485;49.326;7.214;2022-07-23T00:44:13;13.73;;;7.73;;
4939;SDS011;2485;49.326;7.214;2022-07-23T00:46:44;10.33;;;7.80;;
4939;SDS011;2485;49.326;7.214;2022-07-23T00:49:10;10.17;;;7.80;;
4939;SDS011;2485;49.326;7.214;2022-07-23T00:51:37;10.33;;;7.80;;
4939;SDS011;2485;49.326;7.214;2022-07-23T00:54:05;10.23;;;8.10;;
4939;SDS011;2485;49.326;7.214;2022-07-23T00:56:31;12.00;;;8.30;;
4939;SDS011;2485;49.326;7.214;2022-07-23T00:58:58;10.10;;;7.70;;
4939;SDS011;2485;49.326;7.214;2022-07-23T01:01:25;9.27;;;8.27;;
4939;SDS011;2485;49.326;7.214;2022-07-23T01:03:52;11.23;;;8.70;;
4939;SDS011;2485;49.326;7.214;2022-07-23T01:06:18;11.60;;;9.10;;
4939;SDS011;2485;49.326;7.214;2022-07-23T01:08:45;9.47;;;8.43;;
4939;SDS011;2485;49.326;7.214;2022-07-23T01:11:13;10.30;;;8.03;;
4939;SDS011;2485;49.326;7.214;2022-07-23T01:13:40;12.93;;;9.90;;
4939;SDS011;2485;49.326;7.214;2022-07-23T01:16:07;12.20;;;9.50;;
4939;SDS011;2485;49.326;7.214;2022-07-23T01:18:33;10.67;;;8.83;;
4939;SDS011;2485;49.326;7.214;2022-07-23T01:20:59;14.87;;;10.07;;
4939;SDS011;2485;49.326;7.214;2022-07-23T01:23:27;11.70;;;10.37;;
4939;SDS011;2485;49.326;7.214;2022-07-23T01:25:54;12.23;;;9.80;;
4939;SDS011;2485;49.326;7.214;2022-07-23T01:28:21;14.23;;;9.83;;
4939;SDS011;2485;49.326;7.214;2022-07-23T01:30:47;14.83;;;11.00;;
4939;SDS011;2485;49.326;7.214;2022-07-23T01:33:14;11.30;;;9.73;;
4939;SDS011;2485;49.326;7.214;2022-07-23T01:35:40;13.87;;;11.00;;
4939;SDS011;2485;49.326;7.214;2022-07-23T01:38:06;11.20;;;10.00;;
4939;SDS011;2485;49.326;7.214;2022-07-23T01:40:34;15.27;;;10.90;;
4939;SDS011;2485;49.326;7.214;2022-07-23T01:43:00;18.20;;;10.70;;
4939;SDS011;2485;49.326;7.214;2022-07-23T01:45:27;17.90;;;10.70;;
4939;SDS011;2485;49.326;7.214;2022-07-23T01:47:53;14.77;;;11.90;;
4939;SDS011;2485;49.326;7.214;2022-07-23T01:50:20;13.00;;;11.57;;
4939;SDS011;2485;49.326;7.214;2022-07-23T01:52:46;11.70;;;9.80;;
4939;SDS011;2485;49.326;7.214;2022-07-23T01:55:12;13.97;;;10.50;;
4939;SDS011;2485;49.326;7.214;2022-07-23T01:57:40;11.57;;;9.43;;
4939;SDS011;2485;49.326;7.214;2022-07-23T02:00:07;14.07;;;10.20;;
4939;SDS011;2485;49.326;7.214;2022-07-23T02:02:34;17.47;;;10.57;;
4939;SDS011;2485;49.326;7.214;2022-07-23T02:05:00;12.90;;;11.00;;
4939;SDS011;2485;49.326;7.214;2022-07-23T02:07:26;16.03;;;12.13;;
4939;SDS011;2485;49.326;7.214;2022-07-23T02:09:53;15.47;;;11.30;;
4939;SDS011;2485;49.326;7.214;2022-07-23T02:12:19;16.27;;;11.47;;
4939;SDS011;2485;49.326;7.214;2022-07-23T02:14:47;16.90;;;12.40;;
4939;SDS011;2485;49.326;7.214;2022-07-23T02:17:13;15.10;;;11.80;;
4939;SDS011;2485;49.326;7.214;2022-07-23T02:19:39;21.90;;;11.03;;
4939;SDS011;2485;49.326;7.214;2022-07-23T02:22:06;15.40;;;10.37;;
4939;SDS011;2485;49.326;7.214;2022-07-23T02:24:32;13.50;;;10.50;;
4939;SDS011;2485;49.326;7.214;2022-07-23T02:26:59;11.60;;;10.13;;
4939;SDS011;2485;49.326;7.214;2022-07-23T02:29:25;13.30;;;10.60;;
4939;SDS011;2485;49.326;7.214;2022-07-23T02:31:53;17.00;;;11.57;;
4939;SDS011;2485;49.326;7.214;2022-07-23T02:34:19;15.03;;;11.30;;
4939;SDS011;2485;49.326;7.214;2022-07-23T02:36:46;16.50;;;11.53;;
4939;SDS011;2485;49.326;7.214;2022-07-23T02:39:12;13.47;;;10.20;;
4939;SDS011;2485;49.326;7.214;2022-07-23T02:41:39;16.47;;;11.00;;
4939;SDS011;2485;49.326;7.214;2022-07-23T02:44:05;14.60;;;11.37;;
4939;SDS011;2485;49.326;7.214;2022-07-23T02:46:32;13.70;;;10.93;;
4939;SDS011;2485;49.326;7.214;2022-07-23T02:48:59;13.60;;;10.87;;
4939;SDS011;2485;49.326;7.214;2022-07-23T02:51:26;15.67;;;11.67;;
4939;SDS011;2485;49.326;7.214;2022-07-23T02:53:53;12.67;;;10.63;;
4939;SDS011;2485;49.326;7.214;2022-07-23T02:56:19;16.53;;;11.27;;
4939;SDS011;2485;49.326;7.214;2022-07-23T02:58:45;20.13;;;11.03;;
4939;SDS011;2485;49.326;7.214;2022-07-23T03:01:12;15.93;;;11.93;;
4939;SDS011;2485;49.326;7.214;2022-07-23T03:03:38;14.33;;;11.83;;
4939;SDS011;2485;49.326;7.214;2022-07-23T03:06:06;13.47;;;11.23;;
4939;SDS011;2485;49.326;7.214;2022-07-23T03:08:32;17.10;;;11.53;;
4939;SDS011;2485;49.326;7.214;2022-07-23T03:10:59;14.27;;;10.83;;
4939;SDS011;2485;49.326;7.214;2022-07-23T03:13:25;12.83;;;11.20;;
4939;SDS011;2485;49.326;7.214;2022-07-23T03:15:51;17.73;;;11.77;;
4939;SDS011;2485;49.326;7.214;2022-07-23T03:18:18;13.47;;;11.30;;
4939;SDS011;2485;49.326;7.214;2022-07-23T03:20:44;18.80;;;12.20;;
4939;SDS011;2485;49.326;7.214;2022-07-23T03:23:12;14.80;;;12.17;;
4939;SDS011;2485;49.326;7.214;2022-07-23T03:25:38;14.60;;;11.97;;
4939;SDS011;2485;49.326;7.214;2022-07-23T03:28:05;14.10;;;11.67;;
4939;SDS011;2485;49.326;7.214;2022-07-23T03:30:31;15.30;;;12.40;;
4939;SDS011;2485;49.326;7.214;2022-07-23T03:32:57;16.03;;;12.10;;
4939;SDS011;2485;49.326;7.214;2022-07-23T03:35:24;13.87;;;11.77;;
4939;SDS011;2485;49.326;7.214;2022-07-23T03:37:50;15.80;;;11.57;;
4939;SDS011;2485;49.326;7.214;2022-07-23T03:40:18;18.40;;;13.27;;
4939;SDS011;2485;49.326;7.214;2022-07-23T03:42:44;14.47;;;11.73;;
4939;SDS011;2485;49.326;7.214;2022-07-23T03:45:11;13.13;;;11.23;;
4939;SDS011;2485;49.326;7.214;2022-07-23T03:47:37;16.90;;;12.60;;
4939;SDS011;2485;49.326;7.214;2022-07-23T03:50:04;14.77;;;13.17;;
4939;SDS011;2485;49.326;7.214;2022-07-23T03:52:30;14.77;;;12.90;;
4939;SDS011;2485;49.326;7.214;2022-07-23T03:54:57;18.60;;;13.17;;
4939;SDS011;2485;49.326;7.214;2022-07-23T03:57:24;17.77;;;13.80;;
4939;SDS011;2485;49.326;7.214;2022-07-23T03:59:51;16.40;;;13.07;;
4939;SDS011;2485;49.326;7.214;2022-07-23T04:02:17;13.57;;;12.20;;
4939;SDS011;2485;49.326;7.214;2022-07-23T04:04:44;16.10;;;12.60;;
4939;SDS011;2485;49.326;7.214;2022-07-23T04:07:10;17.67;;;13.73;;
4939;SDS011;2485;49.326;7.214;2022-07-23T04:09:37;18.23;;;12.67;;
4939;SDS011;2485;49.326;7.214;2022-07-23T04:12:05;16.73;;;13.23;;
4939;SDS011;2485;49.326;7.214;2022-07-23T04:14:33;21.00;;;14.33;;
4939;SDS011;2485;49.326;7.214;2022-07-23T04:16:59;20.90;;;14.00;;
4939;SDS011;2485;49.326;7.214;2022-07-23T04:19:26;15.80;;;12.90;;
4939;SDS011;2485;49.326;7.214;2022-07-23T04:21:52;16.37;;;12.60;;
4939;SDS011;2485;49.326;7.214;2022-07-23T04:24:19;17.23;;;13.37;;
4939;SDS011;2485;49.326;7.214;2022-07-23T04:26:45;18.07;;;13.17;;
4939;SDS011;2485;49.326;7.214;2022-07-23T04:29:11;18.57;;;12.50;;
4939;SDS011;2485;49.326;7.214;2022-07-23T04:31:39;18.60;;;13.00;;
4939;SDS011;2485;49.326;7.214;2022-07-23T04:34:06;14.80;;;12.00;;
4939;SDS011;2485;49.326;7.214;2022-07-23T04:36:32;14.40;;;12.03;;
4939;SDS011;2485;49.326;7.214;2022-07-23T04:38:58;18.60;;;12.90;;
4939;SDS011;2485;49.326;7.214;2022-07-23T04:41:25;18.83;;;13.40;;
4939;SDS011;2485;49.326;7.214;2022-07-23T04:43:51;16.63;;;12.80;;
4939;SDS011;2485;49.326;7.214;2022-07-23T04:46:17;16.70;;;12.87;;
4939;SDS011;2485;49.326;7.214;2022-07-23T04:48:45;14.47;;;12.00;;
4939;SDS011;2485;49.326;7.214;2022-07-23T04:51:11;19.63;;;14.43;;
4939;SDS011;2485;49.326;7.214;2022-07-23T04:53:38;15.93;;;13.13;;
4939;SDS011;2485;49.326;7.214;2022-07-23T04:56:04;18.70;;;14.20;;
4939;SDS011;2485;49.326;7.214;2022-07-23T04:58:31;17.70;;;13.37;;
4939;SDS011;2485;49.326;7.214;2022-07-23T05:00:57;16.63;;;13.33;;
4939;SDS011;2485;49.326;7.214;2022-07-23T05:03:24;20.13;;;13.83;;
4939;SDS011;2485;49.326;7.214;2022-07-23T05:05:51;17.37;;;14.23;;
4939;SDS011;2485;49.326;7.214;2022-07-23T05:08:18;17.37;;;14.03;;
4939;SDS011;2485;49.326;7.214;2022-07-23T05:10:44;16.87;;;14.00;;
4939;SDS011;2485;49.326;7.214;2022-07-23T05:13:11;18.30;;;13.87;;
4939;SDS011;2485;49.326;7.214;2022-07-23T05:15:37;18.20;;;13.33;;
4939;SDS011;2485;49.326;7.214;2022-07-23T05:18:03;13.97;;;12.57;;
4939;SDS011;2485;49.326;7.214;2022-07-23T05:20:30;16.27;;;13.37;;
4939;SDS011;2485;49.326;7.214;2022-07-23T05:22:57;14.93;;;12.80;;
4939;SDS011;2485;49.326;7.214;2022-07-23T05:25:24;16.87;;;12.60;;
4939;SDS011;2485;49.326;7.214;2022-07-23T05:27:50;16.40;;;12.77;;
4939;SDS011;2485;49.326;7.214;2022-07-23T05:30:17;15.30;;;12.93;;
4939;SDS011;2485;49.326;7.214;2022-07-23T05:32:43;15.57;;;12.07;;
4939;SDS011;2485;49.326;7.214;2022-07-23T05:35:10;19.17;;;14.20;;
4939;SDS011;2485;49.326;7.214;2022-07-23T05:37:36;15.43;;;12.40;;
4939;SDS011;2485;49.326;7.214;2022-07-23T05:40:05;14.73;;;12.63;;
4939;SDS011;2485;49.326;7.214;2022-07-23T05:42:32;17.57;;;13.03;;
4939;SDS011;2485;49.326;7.214;2022-07-23T05:44:58;12.93;;;11.53;;
4939;SDS011;2485;49.326;7.214;2022-07-23T05:47:25;17.07;;;13.63;;
4939;SDS011;2485;49.326;7.214;2022-07-23T05:49:51;16.00;;;13.97;;
4939;SDS011;2485;49.326;7.214;2022-07-23T05:52:18;15.17;;;12.07;;
4939;SDS011;2485;49.326;7.214;2022-07-23T05:54:44;19.00;;;14.00;;
4939;SDS011;2485;49.326;7.214;2022-07-23T05:57:12;14.10;;;11.80;;
4939;SDS011;2485;49.326;7.214;2022-07-23T05:59:38;16.80;;;12.13;;
4939;SDS011;2485;49.326;7.214;2022-07-23T06:02:05;13.87;;;11.60;;
4939;SDS011;2485;49.326;7.214;2022-07-23T06:04:31;17.50;;;12.43;;
4939;SDS011;2485;49.326;7.214;2022-07-23T06:06:58;17.20;;;13.70;;
4939;SDS011;2485;49.326;7.214;2022-07-23T06:09:24;17.57;;;12.40;;
4939;SDS011;2485;49.326;7.214;2022-07-23T06:11:51;16.47;;;14.30;;
4939;SDS011;2485;49.326;7.214;2022-07-23T06:14:18;19.23;;;12.90;;
4939;SDS011;2485;49.326;7.214;2022-07-23T06:16:45;17.70;;;13.00;;
4939;SDS011;2485;49.326;7.214;2022-07-23T06:19:11;18.57;;;13.57;;
4939;SDS011;2485;49.326;7.214;2022-07-23T06:21:37;14.80;;;12.40;;
4939;SDS011;2485;49.326;7.214;2022-07-23T06:24:04;17.87;;;12.07;;
4939;SDS011;2485;49.326;7.214;2022-07-23T06:26:30;17.10;;;12.47;;
4939;SDS011;2485;49.326;7.214;2022-07-23T06:28:57;15.00;;;12.20;;
4939;SDS011;2485;49.326;7.214;2022-07-23T06:31:25;12.50;;;11.20;;
4939;SDS011;2485;49.326;7.214;2022-07-23T06:33:51;17.83;;;11.50;;
4939;SDS011;2485;49.326;7.214;2022-07-23T06:36:17;11.40;;;10.20;;
4939;SDS011;2485;49.326;7.214;2022-07-23T06:38:44;12.40;;;10.50;;
4939;SDS011;2485;49.326;7.214;2022-07-23T06:41:10;13.03;;;10.90;;
4939;SDS011;2485;49.326;7.214;2022-07-23T06:43:37;15.30;;;10.13;;
4939;SDS011;2485;49.326;7.214;2022-07-23T06:46:03;13.27;;;10.87;;
4939;SDS011;2485;49.326;7.214;2022-07-23T06:48:31;12.43;;;11.13;;
4939;SDS011;2485;49.326;7.214;2022-07-23T06:50:59;12.73;;;10.57;;
4939;SDS011;2485;49.326;7.214;2022-07-23T06:53:25;12.13;;;10.87;;
4939;SDS011;2485;49.326;7.214;2022-07-23T06:55:52;11.50;;;9.87;;
4939;SDS011;2485;49.326;7.214;2022-07-23T06:58:18;11.10;;;10.00;;
4939;SDS011;2485;49.326;7.214;2022-07-23T07:00:45;13.43;;;10.30;;
4939;SDS011;2485;49.326;7.214;2022-07-23T07:03:11;11.10;;;10.00;;
4939;SDS011;2485;49.326;7.214;2022-07-23T07:05:39;11.90;;;9.90;;
4939;SDS011;2485;49.326;7.214;2022-07-23T07:08:06;15.47;;;10.50;;
4939;SDS011;2485;49.326;7.214;2022-07-23T07:10:32;13.40;;;10.70;;
4939;SDS011;2485;49.326;7.214;2022-07-23T07:12:58;12.23;;;9.17;;
4939;SDS011;2485;49.326;7.214;2022-07-23T07:15:25;16.60;;;10.00;;
4939;SDS011;2485;49.326;7.214;2022-07-23T07:17:51;13.90;;;10.30;;
4939;SDS011;2485;49.326;7.214;2022-07-23T07:20:17;15.67;;;10.37;;
4939;SDS011;2485;49.326;7.214;2022-07-23T07:22:45;13.23;;;10.10;;
4939;SDS011;2485;49.326;7.214;2022-07-23T07:25:11;16.13;;;11.40;;
4939;SDS011;2485;49.326;7.214;2022-07-23T07:27:38;11.00;;;9.70;;
4939;SDS011;2485;49.326;7.214;2022-07-23T07:30:05;12.70;;;9.33;;
4939;SDS011;2485;49.326;7.214;2022-07-23T07:32:31;12.00;;;9.87;;
4939;SDS011;2485;49.326;7.214;2022-07-23T07:34:58;12.23;;;9.50;;
4939;SDS011;2485;49.326;7.214;2022-07-23T07:37:24;12.80;;;9.93;;
4939;SDS011;2485;49.326;7.214;2022-07-23T07:39:52;13.60;;;10.20;;
4939;SDS011;2485;49.326;7.214;2022-07-23T07:42:18;9.67;;;8.50;;
4939;SDS011;2485;49.326;7.214;2022-07-23T07:44:45;11.10;;;9.10;;
4939;SDS011;2485;49.326;7.214;2022-07-23T07:47:11;10.77;;;9.30;;
4939;SDS011;2485;49.326;7.214;2022-07-23T07:49:39;9.77;;;8.70;;
4939;SDS011;2485;49.326;7.214;2022-07-23T07:52:05;11.80;;;9.00;;
4939;SDS011;2485;49.326;7.214;2022-07-23T07:54:32;10.73;;;9.30;;
4939;SDS011;2485;49.326;7.214;2022-07-23T07:56:59;10.07;;;9.10;;
4939;SDS011;2485;49.326;7.214;2022-07-23T07:59:26;11.60;;;9.03;;
4939;SDS011;2485;49.326;7.214;2022-07-23T08:01:52;11.73;;;8.70;;
4939;SDS011;2485;49.326;7.214;2022-07-23T08:04:18;11.40;;;9.90;;
4939;SDS011;2485;49.326;7.214;2022-07-23T08:06:45;11.37;;;9.63;;
4939;SDS011;2485;49.326;7.214;2022-07-23T08:09:11;10.17;;;8.73;;
4939;SDS011;2485;49.326;7.214;2022-07-23T08:11:38;12.23;;;9.50;;
4939;SDS011;2485;49.326;7.214;2022-07-23T08:14:05;11.67;;;9.07;;
4939;SDS011;2485;49.326;7.214;2022-07-23T08:16:32;10.17;;;8.67;;
4939;SDS011;2485;49.326;7.214;2022-07-23T08:18:58;10.70;;;8.90;;
4939;SDS011;2485;49.326;7.214;2022-07-23T08:21:24;10.70;;;9.10;;
4939;SDS011;2485;49.326;7.214;2022-07-23T08:23:51;10.57;;;9.30;;
4939;SDS011;2485;49.326;7.214;2022-07-23T08:26:17;10.93;;;9.43;;
4939;SDS011;2485;49.326;7.214;2022-07-23T08:28:43;11.77;;;9.37;;
4939;SDS011;2485;49.326;7.214;2022-07-23T08:31:11;16.93;;;10.00;;
4939;SDS011;2485;49.326;7.214;2022-07-23T08:33:40;14.77;;;10.33;;
4939;SDS011;2485;49.326;7.214;2022-07-23T08:36:07;11.30;;;9.30;;
4939;SDS011;2485;49.326;7.214;2022-07-23T08:38:33;10.53;;;9.33;;
4939;SDS011;2485;49.326;7.214;2022-07-23T08:41:01;11.50;;;10.30;;
4939;SDS011;2485;49.326;7.214;2022-07-23T08:43:28;10.40;;;9.00;;
4939;SDS011;2485;49.326;7.214;2022-07-23T08:45:55;11.23;;;9.57;;
4939;SDS011;2485;49.326;7.214;2022-07-23T08:48:24;10.33;;;9.23;;
4939;SDS011;2485;49.326;7.214;2022-07-23T08:50:51;12.80;;;10.03;;
4939;SDS011;2485;49.326;7.214;2022-07-23T08:53:18;10.50;;;9.00;;
4939;SDS011;2485;49.326;7.214;2022-07-23T08:55:45;11.77;;;9.70;;
4939;SDS011;2485;49.326;7.214;2022-07-23T08:58:12;12.93;;;10.00;;
4939;SDS011;2485;49.326;7.214;2022-07-23T09:00:38;14.90;;;10.07;;
4939;SDS011;2485;49.326;7.214;2022-07-23T09:03:04;10.63;;;9.07;;
4939;SDS011;2485;49.326;7.214;2022-07-23T09:05:32;10.93;;;9.10;;
4939;SDS011;2485;49.326;7.214;2022-07-23T09:08:09;11.37;;;9.60;;
4939;SDS011;2485;49.326;7.214;2022-07-23T09:10:45;11.17;;;9.87;;
4939;SDS011;2485;49.326;7.214;2022-07-23T09:13:22;11.00;;;9.47;;
4939;SDS011;2485;49.326;7.214;2022-07-23T09:15:49;10.40;;;9.30;;
4939;SDS011;2485;49.326;7.214;2022-07-23T09:18:16;11.00;;;8.50;;
4939;SDS011;2485;49.326;7.214;2022-07-23T09:20:44;10.57;;;8.80;;
4939;SDS011;2485;49.326;7.214;2022-07-23T09:23:10;10.90;;;9.57;;
4939;SDS011;2485;49.326;7.214;2022-07-23T09:25:37;11.00;;;9.80;;
4939;SDS011;2485;49.326;7.214;2022-07-23T09:28:03;12.73;;;8.60;;
4939;SDS011;2485;49.326;7.214;2022-07-23T09:30:32;11.03;;;8.47;;
4939;SDS011;2485;49.326;7.214;2022-07-23T09:33:06;10.60;;;8.90;;
4939;SDS011;2485;49.326;7.214;2022-07-23T09:38:15;11.57;;;9.53;;
4939;SDS011;2485;49.326;7.214;2022-07-23T09:40:42;10.00;;;8.60;;
4939;SDS011;2485;49.326;7.214;2022-07-23T09:43:09;10.77;;;9.10;;
4939;SDS011;2485;49.326;7.214;2022-07-23T09:45:36;11.40;;;9.00;;
4939;SDS011;2485;49.326;7.214;2022-07-23T09:48:10;10.00;;;9.00;;
4939;SDS011;2485;49.326;7.214;2022-07-23T09:50:37;9.63;;;8.20;;
4939;SDS011;2485;49.326;7.214;2022-07-23T09:53:04;9.57;;;8.53;;
4939;SDS011;2485;49.326;7.214;2022-07-23T09:55:32;9.27;;;7.80;;
4939;SDS011;2485;49.326;7.214;2022-07-23T09:58:01;9.17;;;8.23;;
4939;SDS011;2485;49.326;7.214;2022-07-23T10:00:28;12.33;;;8.30;;
4939;SDS011;2485;49.326;7.214;2022-07-23T10:02:55;10.87;;;8.57;;
4939;SDS011;2485;49.326;7.214;2022-07-23T10:05:21;9.90;;;8.90;;
4939;SDS011;2485;49.326;7.214;2022-07-23T10:07:49;11.00;;;7.90;;
4939;SDS011;2485;49.326;7.214;2022-07-23T10:10:16;8.43;;;7.63;;
4939;SDS011;2485;49.326;7.214;2022-07-23T10:12:44;10.10;;;8.10;;
4939;SDS011;2485;49.326;7.214;2022-07-23T10:15:27;9.17;;;7.90;;
4939;SDS011;2485;49.326;7.214;2022-07-23T10:17:54;10.50;;;8.30;;
4939;SDS011;2485;49.326;7.214;2022-07-23T10:20:20;9.90;;;8.00;;
4939;SDS011;2485;49.326;7.214;2022-07-23T10:22:48;9.70;;;7.90;;
4939;SDS011;2485;49.326;7.214;2022-07-23T10:25:21;9.30;;;8.37;;
4939;SDS011;2485;49.326;7.214;2022-07-23T10:27:56;10.43;;;9.20;;
4939;SDS011;2485;49.326;7.214;2022-07-23T10:30:26;10.90;;;8.50;;
4939;SDS011;2485;49.326;7.214;2022-07-23T10:32:58;12.50;;;8.20;;
4939;SDS011;2485;49.326;7.214;2022-07-23T10:35:29;9.43;;;8.50;;
4939;SDS011;2485;49.326;7.214;2022-07-23T10:38:00;8.93;;;7.43;;
4939;SDS011;2485;49.326;7.214;2022-07-23T10:40:28;10.30;;;7.80;;
4939;SDS011;2485;49.326;7.214;2022-07-23T10:42:59;9.70;;;7.50;;
4939;SDS011;2485;49.326;7.214;2022-07-23T10:45:27;9.30;;;7.87;;
4939;SDS011;2485;49.326;7.214;2022-07-23T10:47:54;15.93;;;8.03;;
4939;SDS011;2485;49.326;7.214;2022-07-23T10:50:21;7.90;;;7.10;;
4939;SDS011;2485;49.326;7.214;2022-07-23T10:55:40;10.10;;;7.70;;
4939;SDS011;2485;49.326;7.214;2022-07-23T10:58:08;10.87;;;7.53;;
4939;SDS011;2485;49.326;7.214;2022-07-23T11:00:34;10.20;;;7.93;;
4939;SDS011;2485;49.326;7.214;2022-07-23T11:03:02;8.37;;;7.50;;
4939;SDS011;2485;49.326;7.214;2022-07-23T11:05:39;8.50;;;7.57;;
4939;SDS011;2485;49.326;7.214;2022-07-23T11:08:16;10.40;;;8.50;;
4939;SDS011;2485;49.326;7.214;2022-07-23T11:10:45;9.17;;;7.30;;
4939;SDS011;2485;49.326;7.214;2022-07-23T11:13:30;7.90;;;6.90;;
4939;SDS011;2485;49.326;7.214;2022-07-23T11:16:06;11.80;;;7.53;;
4939;SDS011;2485;49.326;7.214;2022-07-23T11:18:53;10.10;;;9.00;;
4939;SDS011;2485;49.326;7.214;2022-07-23T11:24:06;8.27;;;7.43;;
4939;SDS011;2485;49.326;7.214;2022-07-23T11:26:46;10.37;;;7.77;;
4939;SDS011;2485;49.326;7.214;2022-07-23T11:32:02;8.37;;;7.57;;
4939;SDS011;2485;49.326;7.214;2022-07-23T11:34:29;7.73;;;6.87;;
4939;SDS011;2485;49.326;7.214;2022-07-23T11:36:57;10.03;;;7.37;;
4939;SDS011;2485;49.326;7.214;2022-07-23T11:39:25;8.13;;;6.90;;
4939;SDS011;2485;49.326;7.214;2022-07-23T11:41:53;12.93;;;8.10;;
4939;SDS011;2485;49.326;7.214;2022-07-23T11:44:25;9.37;;;7.93;;
4939;SDS011;2485;49.326;7.214;2022-07-23T11:46:55;11.97;;;8.60;;
4939;SDS011;2485;49.326;7.214;2022-07-23T11:49:24;8.97;;;8.13;;
4939;SDS011;2485;49.326;7.214;2022-07-23T11:52:02;9.30;;;8.40;;
4939;SDS011;2485;49.326;7.214;2022-07-23T11:54:29;11.00;;;8.70;;
4939;SDS011;2485;49.326;7.214;2022-07-23T11:56:55;10.13;;;8.20;;
4939;SDS011;2485;49.326;7.214;2022-07-23T11:59:22;9.43;;;8.53;;
4939;SDS011;2485;49.326;7.214;2022-07-23T12:01:56;9.57;;;8.63;;
4939;SDS011;2485;49.326;7.214;2022-07-23T12:04:24;12.20;;;8.43;;
4939;SDS011;2485;49.326;7.214;2022-07-23T12:06:50;9.63;;;8.60;;
4939;SDS011;2485;49.326;7.214;2022-07-23T12:09:17;10.27;;;9.27;;
4939;SDS011;2485;49.326;7.214;2022-07-23T12:11:56;12.67;;;8.80;;
4939;SDS011;2485;49.326;7.214;2022-07-23T12:14:22;10.30;;;8.97;;
4939;SDS011;2485;49.326;7.214;2022-07-23T12:19:31;11.30;;;8.87;;
4939;SDS011;2485;49.326;7.214;2022-07-23T12:21:57;10.43;;;9.23;;
4939;SDS011;2485;49.326;7.214;2022-07-23T12:24:24;13.87;;;8.77;;
4939;SDS011;2485;49.326;7.214;2022-07-23T12:29:33;14.80;;;8.77;;
4939;SDS011;2485;49.326;7.214;2022-07-23T12:32:00;10.13;;;7.90;;
4939;SDS011;2485;49.326;7.214;2022-07-23T12:34:26;8.90;;;7.90;;
4939;SDS011;2485;49.326;7.214;2022-07-23T12:36:54;8.50;;;7.70;;
4939;SDS011;2485;49.326;7.214;2022-07-23T12:39:29;10.13;;;7.57;;
4939;SDS011;2485;49.326;7.214;2022-07-23T12:41:55;9.23;;;6.80;;
4939;SDS011;2485;49.326;7.214;2022-07-23T12:44:21;9.30;;;7.40;;
4939;SDS011;2485;49.326;7.214;2022-07-23T12:46:49;8.50;;;7.60;;
4939;SDS011;2485;49.326;7.214;2022-07-23T12:49:24;8.57;;;7.27;;
4939;SDS011;2485;49.326;7.214;2022-07-23T12:51:51;12.00;;;7.70;;
4939;SDS011;2485;49.326;7.214;2022-07-23T12:54:19;8.10;;;7.30;;
4939;SDS011;2485;49.326;7.214;2022-07-23T12:56:52;8.90;;;7.47;;
4939;SDS011;2485;49.326;7.214;2022-07-23T12:59:19;10.30;;;7.33;;
4939;SDS011;2485;49.326;7.214;2022-07-23T13:01:53;7.60;;;6.83;;
4939;SDS011;2485;49.326;7.214;2022-07-23T13:04:20;8.97;;;7.53;;
4939;SDS011;2485;49.326;7.214;2022-07-23T13:06:48;9.80;;;7.70;;
4939;SDS011;2485;49.326;7.214;2022-07-23T13:09:15;8.13;;;7.33;;
4939;SDS011;2485;49.326;7.214;2022-07-23T13:11:43;9.13;;;7.17;;
4939;SDS011;2485;49.326;7.214;2022-07-23T13:14:10;8.80;;;7.90;;
4939;SDS011;2485;49.326;7.214;2022-07-23T13:16:36;13.80;;;7.83;;
4939;SDS011;2485;49.326;7.214;2022-07-23T13:19:03;10.57;;;8.20;;
4939;SDS011;2485;49.326;7.214;2022-07-23T13:21:29;9.03;;;7.57;;
4939;SDS011;2485;49.326;7.214;2022-07-23T13:23:56;7.77;;;6.13;;
4939;SDS011;2485;49.326;7.214;2022-07-23T13:26:22;9.50;;;7.47;;
4939;SDS011;2485;49.326;7.214;2022-07-23T13:28:50;7.87;;;6.90;;
4939;SDS011;2485;49.326;7.214;2022-07-23T13:31:16;8.70;;;7.53;;
4939;SDS011;2485;49.326;7.214;2022-07-23T13:33:43;7.93;;;7.23;;
4939;SDS011;2485;49.326;7.214;2022-07-23T13:36:09;11.93;;;6.80;;
4939;SDS011;2485;49.326;7.214;2022-07-23T13:38:36;7.10;;;6.40;;
4939;SDS011;2485;49.326;7.214;2022-07-23T13:41:02;10.57;;;7.20;;
4939;SDS011;2485;49.326;7.214;2022-07-23T13:43:29;7.80;;;7.00;;
4939;SDS011;2485;49.326;7.214;2022-07-23T13:45:57;10.80;;;6.90;;
4939;SDS011;2485;49.326;7.214;2022-07-23T13:48:23;7.90;;;6.73;;
4939;SDS011;2485;49.326;7.214;2022-07-23T13:50:50;8.30;;;6.90;;
4939;SDS011;2485;49.326;7.214;2022-07-23T13:53:16;6.60;;;6.00;;
4939;SDS011;2485;49.326;7.214;2022-07-23T13:55:43;10.60;;;6.90;;
4939;SDS011;2485;49.326;7.214;2022-07-23T13:58:10;8.00;;;7.10;;
4939;SDS011;2485;49.326;7.214;2022-07-23T14:00:37;6.80;;;6.20;;
4939;SDS011;2485;49.326;7.214;2022-07-23T14:03:06;7.10;;;6.40;;
4939;SDS011;2485;49.326;7.214;2022-07-23T14:05:32;8.83;;;6.80;;
4939;SDS011;2485;49.326;7.214;2022-07-23T14:07:59;7.50;;;6.73;;
4939;SDS011;2485;49.326;7.214;2022-07-23T14:10:25;8.53;;;6.37;;
4939;SDS011;2485;49.326;7.214;2022-07-23T14:12:52;7.30;;;6.37;;
4939;SDS011;2485;49.326;7.214;2022-07-23T14:15:21;7.13;;;6.43;;
4939;SDS011;2485;49.326;7.214;2022-07-23T14:17:47;9.43;;;7.37;;
4939;SDS011;2485;49.326;7.214;2022-07-23T14:20:15;8.17;;;7.13;;
4939;SDS011;2485;49.326;7.214;2022-07-23T14:22:42;9.77;;;6.60;;
4939;SDS011;2485;49.326;7.214;2022-07-23T14:25:11;7.70;;;6.80;;
4939;SDS011;2485;49.326;7.214;2022-07-23T14:27:38;9.47;;;7.10;;
4939;SDS011;2485;49.326;7.214;2022-07-23T14:30:05;8.03;;;7.33;;
4939;SDS011;2485;49.326;7.214;2022-07-23T14:32:31;7.40;;;6.70;;
4939;SDS011;2485;49.326;7.214;2022-07-23T14:34:58;8.27;;;6.63;;
4939;SDS011;2485;49.326;7.214;2022-07-23T14:37:26;6.70;;;5.57;;
4939;SDS011;2485;49.326;7.214;2022-07-23T14:39:52;7.23;;;5.93;;
4939;SDS011;2485;49.326;7.214;2022-07-23T14:42:18;6.87;;;5.00;;
4939;SDS011;2485;49.326;7.214;2022-07-23T14:44:45;7.53;;;6.00;;
4939;SDS011;2485;49.326;7.214;2022-07-23T14:47:11;7.23;;;5.97;;
4939;SDS011;2485;49.326;7.214;2022-07-23T14:49:38;7.70;;;5.70;;
4939;SDS011;2485;49.326;7.214;2022-07-23T14:52:04;6.50;;;5.80;;
4939;SDS011;2485;49.326;7.214;2022-07-23T14:54:33;10.33;;;6.80;;
4939;SDS011;2485;49.326;7.214;2022-07-23T14:57:00;7.60;;;6.40;;
4939;SDS011;2485;49.326;7.214;2022-07-23T14:59:27;6.93;;;6.03;;
4939;SDS011;2485;49.326;7.214;2022-07-23T15:01:55;6.33;;;5.73;;
4939;SDS011;2485;49.326;7.214;2022-07-23T15:04:21;5.80;;;5.30;;
4939;SDS011;2485;49.326;7.214;2022-07-23T15:06:48;6.10;;;5.50;;
4939;SDS011;2485;49.326;7.214;2022-07-23T15:09:14;7.73;;;6.30;;
4939;SDS011;2485;49.326;7.214;2022-07-23T15:11:42;6.17;;;5.57;;
4939;SDS011;2485;49.326;7.214;2022-07-23T15:14:09;6.40;;;5.80;;
4939;SDS011;2485;49.326;7.214;2022-07-23T15:16:35;7.43;;;5.73;;